createdAt,value
2019-03-31T00:00:37.228Z,8.80
2019-03-31T00:03:09.538Z,8.90
2019-03-31T00:05:41.698Z,9.00
2019-03-31T00:08:13.674Z,9.00
2019-03-31T00:10:45.796Z,8.80
2019-03-31T00:13:17.744Z,8.70
2019-03-31T00:15:49.722Z,8.70
2019-03-31T00:18:21.625Z,8.70
2019-03-31T00:20:53.582Z,8.60
2019-03-31T00:23:25.555Z,8.70
2019-03-31T00:25:57.541Z,8.80
2019-03-31T00:28:29.601Z,8.70
2019-03-31T00:31:01.836Z,8.80
2019-03-31T00:33:34.094Z,8.80
2019-03-31T00:36:06.187Z,8.80
2019-03-31T00:38:38.450Z,8.80
2019-03-31T00:41:10.538Z,8.80
2019-03-31T00:43:42.422Z,8.80
2019-03-31T00:46:14.407Z,8.80
2019-03-31T00:48:46.631Z,8.70
2019-03-31T00:51:18.521Z,8.60
2019-03-31T00:53:51.141Z,8.50
2019-03-31T00:56:23.236Z,8.50
2019-03-31T00:58:56.236Z,8.40
2019-03-31T01:01:46.145Z,8.30
2019-03-31T01:04:23.412Z,8.20
2019-03-31T01:06:56.772Z,8.10
2019-03-31T01:09:34.372Z,8.10
2019-03-31T01:12:07.440Z,8.10
2019-03-31T01:14:40.247Z,8.10
2019-03-31T01:17:13.057Z,7.90
2019-03-31T01:19:45.040Z,7.90
2019-03-31T01:22:17.096Z,7.80
2019-03-31T01:24:49.148Z,7.70
2019-03-31T01:27:21.487Z,7.70
2019-03-31T01:29:54.316Z,7.70
2019-03-31T01:32:26.683Z,7.60
2019-03-31T01:34:58.808Z,7.60
2019-03-31T01:37:30.884Z,7.50
2019-03-31T01:40:03.232Z,7.40
2019-03-31T01:42:35.607Z,7.40
2019-03-31T01:45:08.269Z,7.30
2019-03-31T01:47:40.395Z,7.30
2019-03-31T01:50:14.856Z,7.20
2019-03-31T01:52:46.824Z,7.20
2019-03-31T01:55:19.189Z,7.10
2019-03-31T01:57:51.212Z,7.10
2019-03-31T02:00:34.239Z,7.10
2019-03-31T02:03:06.707Z,7.00
2019-03-31T02:05:38.834Z,7.00
2019-03-31T02:08:11.033Z,6.90
2019-03-31T02:10:43.090Z,6.90
2019-03-31T02:13:15.452Z,6.90
2019-03-31T02:15:47.615Z,6.80
2019-03-31T02:18:19.995Z,6.80
2019-03-31T02:20:52.136Z,6.80
2019-03-31T02:23:24.409Z,6.80
2019-03-31T02:25:56.498Z,6.80
2019-03-31T02:28:28.657Z,6.80
2019-03-31T02:31:01.355Z,6.70
2019-03-31T02:33:33.315Z,6.80
2019-03-31T02:36:05.384Z,6.70
2019-03-31T02:38:37.294Z,6.70
2019-03-31T02:41:09.591Z,6.70
2019-03-31T02:43:41.786Z,6.60
2019-03-31T02:46:13.879Z,6.40
2019-03-31T02:48:45.851Z,6.30
2019-03-31T02:51:18.259Z,6.30
2019-03-31T02:53:50.720Z,6.30
2019-03-31T02:56:23.724Z,6.30
2019-03-31T02:58:58.929Z,6.30
2019-03-31T03:01:34.252Z,6.40
2019-03-31T03:04:08.120Z,6.40
2019-03-31T03:06:42.736Z,6.50
2019-03-31T03:09:16.045Z,6.50
2019-03-31T03:11:49.490Z,6.50
2019-03-31T03:14:24.242Z,6.50
2019-03-31T03:16:56.388Z,6.50
2019-03-31T03:19:28.360Z,6.50
2019-03-31T03:22:00.369Z,6.60
2019-03-31T03:24:32.546Z,6.90
2019-03-31T03:27:05.419Z,6.80
2019-03-31T03:29:37.706Z,6.70
2019-03-31T03:32:09.616Z,6.70
2019-03-31T03:34:41.833Z,6.80
2019-03-31T03:37:13.907Z,6.70
2019-03-31T03:39:46.584Z,6.80
2019-03-31T03:42:18.477Z,6.70
2019-03-31T03:44:50.559Z,6.80
2019-03-31T03:47:22.777Z,6.70
2019-03-31T03:49:54.788Z,6.60
2019-03-31T03:52:27.122Z,6.80
2019-03-31T03:54:59.746Z,6.80
2019-03-31T03:57:31.732Z,6.80
2019-03-31T04:00:04.477Z,6.70
2019-03-31T04:02:36.470Z,6.50
2019-03-31T04:05:08.693Z,6.50
2019-03-31T04:07:41.058Z,6.60
2019-03-31T04:11:09.929Z,6.70
2019-03-31T04:13:41.998Z,6.50
2019-03-31T04:16:14.075Z,6.40
2019-03-31T04:18:46.208Z,6.30
2019-03-31T04:21:18.605Z,6.10
2019-03-31T04:23:50.677Z,6.00
2019-03-31T04:26:22.802Z,6.00
2019-03-31T04:28:54.946Z,5.90
2019-03-31T04:31:27.051Z,5.90
2019-03-31T04:33:59.115Z,5.90
2019-03-31T04:36:31.100Z,5.80
2019-03-31T04:39:04.690Z,6.10
2019-03-31T04:41:37.007Z,6.20
2019-03-31T04:44:09.354Z,6.10
2019-03-31T04:46:41.573Z,6.20
2019-03-31T04:49:13.485Z,6.30
2019-03-31T04:51:45.390Z,6.30
2019-03-31T04:54:17.375Z,6.30
2019-03-31T04:56:49.362Z,6.30
2019-03-31T04:59:21.540Z,6.50
2019-03-31T05:01:53.419Z,6.60
2019-03-31T05:04:26.230Z,6.50
2019-03-31T05:06:58.371Z,6.40
2019-03-31T05:09:30.266Z,6.20
2019-03-31T05:12:02.613Z,6.10
2019-03-31T05:14:34.783Z,6.40
2019-03-31T05:17:06.938Z,6.70
2019-03-31T05:19:39.205Z,6.60
2019-03-31T05:22:11.465Z,6.40
2019-03-31T05:24:43.378Z,6.10
2019-03-31T05:27:16.008Z,5.90
2019-03-31T05:29:48.868Z,5.90
2019-03-31T05:32:20.803Z,6.00
2019-03-31T05:34:52.778Z,5.90
2019-03-31T05:37:24.852Z,5.90
2019-03-31T05:39:57.174Z,5.90
2019-03-31T05:42:29.083Z,5.90
2019-03-31T05:45:00.982Z,5.90
2019-03-31T05:47:32.885Z,6.00
2019-03-31T05:50:05.329Z,6.10
2019-03-31T05:52:37.205Z,6.10
2019-03-31T05:55:09.657Z,6.10
2019-03-31T05:57:41.629Z,6.20
2019-03-31T06:00:15.241Z,6.30
2019-03-31T06:02:47.545Z,6.30
2019-03-31T06:05:19.499Z,6.40
2019-03-31T06:07:51.483Z,6.40
2019-03-31T06:10:23.473Z,6.50
2019-03-31T06:12:55.927Z,6.50
2019-03-31T06:15:27.974Z,6.60
2019-03-31T06:17:59.947Z,6.80
2019-03-31T06:20:32.386Z,6.80
2019-03-31T06:23:04.896Z,6.90
2019-03-31T06:25:36.993Z,6.90
2019-03-31T06:28:09.109Z,7.00
2019-03-31T06:30:41.082Z,7.30
2019-03-31T06:33:13.052Z,7.40
2019-03-31T06:35:45.250Z,7.60
2019-03-31T06:38:17.181Z,7.80
2019-03-31T06:40:52.187Z,8.10
2019-03-31T06:43:24.224Z,8.20
2019-03-31T06:45:56.221Z,8.20
2019-03-31T06:48:28.187Z,8.30
2019-03-31T06:51:00.204Z,8.30
2019-03-31T06:53:32.475Z,8.30
2019-03-31T06:56:04.458Z,8.40
2019-03-31T06:58:36.541Z,8.40
2019-03-31T07:01:08.513Z,8.70
2019-03-31T07:03:40.755Z,8.70
2019-03-31T07:06:12.745Z,8.60
2019-03-31T07:08:44.755Z,8.60
2019-03-31T07:11:17.071Z,8.70
2019-03-31T07:13:49.124Z,8.80
2019-03-31T07:16:21.053Z,9.00
2019-03-31T07:18:53.307Z,9.10
2019-03-31T07:21:25.347Z,9.30
2019-03-31T07:23:57.359Z,9.60
2019-03-31T07:26:29.229Z,9.80
2019-03-31T07:29:01.242Z,10.00
2019-03-31T07:31:33.318Z,11.20
2019-03-31T07:34:05.373Z,12.20
2019-03-31T07:36:37.583Z,13.70
2019-03-31T07:39:10.068Z,14.40
2019-03-31T07:41:42.274Z,15.20
2019-03-31T07:44:15.418Z,15.90
2019-03-31T07:46:47.610Z,16.20
2019-03-31T07:49:19.530Z,16.60
2019-03-31T07:51:51.534Z,17.80
2019-03-31T07:54:23.648Z,17.00
2019-03-31T07:56:55.831Z,16.40
2019-03-31T07:59:27.770Z,17.00
2019-03-31T08:01:59.743Z,17.40
2019-03-31T08:04:31.928Z,18.00
2019-03-31T08:07:03.864Z,17.40
2019-03-31T08:09:35.966Z,17.60
2019-03-31T08:12:08.067Z,18.00
2019-03-31T08:14:39.984Z,18.10
2019-03-31T08:17:12.744Z,18.00
2019-03-31T08:19:44.668Z,17.70
2019-03-31T08:22:16.825Z,17.80
2019-03-31T08:24:48.855Z,18.50
2019-03-31T08:27:20.924Z,19.00
2019-03-31T08:30:00.520Z,19.80
2019-03-31T08:32:28.605Z,19.60
2019-03-31T08:35:00.663Z,19.30
2019-03-31T08:37:32.679Z,19.40
2019-03-31T08:40:05.062Z,19.90
2019-03-31T08:42:37.090Z,19.30
2019-03-31T08:45:10.185Z,20.10
2019-03-31T08:47:42.256Z,20.20
2019-03-31T08:50:16.118Z,20.30
2019-03-31T08:52:48.332Z,19.50
2019-03-31T08:55:20.367Z,20.00
2019-03-31T08:57:52.680Z,19.40
2019-03-31T09:00:43.672Z,19.70
2019-03-31T09:03:15.679Z,20.30
2019-03-31T09:06:01.110Z,21.00
2019-03-31T09:08:21.304Z,20.60
2019-03-31T09:10:53.731Z,20.80
2019-03-31T09:13:25.630Z,21.40
2019-03-31T09:15:58.080Z,21.90
2019-03-31T09:18:30.457Z,20.60
2019-03-31T09:21:02.527Z,21.00
2019-03-31T09:23:34.538Z,20.90
2019-03-31T09:26:09.440Z,20.60
2019-03-31T09:28:40.820Z,21.20
2019-03-31T09:31:12.892Z,21.70
2019-03-31T09:33:45.001Z,22.00
2019-03-31T09:36:17.112Z,22.70
2019-03-31T09:38:49.110Z,22.20
2019-03-31T09:41:21.395Z,21.30
2019-03-31T09:43:53.479Z,20.70
2019-03-31T09:46:25.812Z,20.80
2019-03-31T09:48:57.726Z,21.60
2019-03-31T09:51:29.629Z,21.50
2019-03-31T09:54:01.703Z,21.30
2019-03-31T09:56:33.881Z,21.30
2019-03-31T09:59:06.959Z,22.00
2019-03-31T10:01:39.252Z,21.10
2019-03-31T10:04:11.685Z,20.90
2019-03-31T10:06:44.442Z,20.60
2019-03-31T10:09:17.287Z,20.50
2019-03-31T10:11:49.794Z,20.80
2019-03-31T10:14:22.138Z,21.10
2019-03-31T10:16:54.067Z,21.60
2019-03-31T10:19:26.013Z,21.20
2019-03-31T10:21:57.987Z,21.70
2019-03-31T10:24:30.021Z,22.00
2019-03-31T10:27:03.248Z,23.00
2019-03-31T10:29:36.020Z,22.50
2019-03-31T10:32:08.503Z,23.20
2019-03-31T10:34:40.412Z,22.80
2019-03-31T10:37:12.405Z,22.60
2019-03-31T10:39:44.810Z,22.50
2019-03-31T10:42:16.878Z,22.70
2019-03-31T10:44:49.195Z,23.30
2019-03-31T10:47:21.218Z,22.80
2019-03-31T10:49:53.404Z,22.40
2019-03-31T10:52:25.491Z,22.20
2019-03-31T10:54:58.182Z,22.30
2019-03-31T10:57:30.272Z,22.40
2019-03-31T11:00:02.358Z,22.40
2019-03-31T11:02:34.772Z,22.70
2019-03-31T11:05:08.387Z,22.50
2019-03-31T11:07:40.765Z,22.90
2019-03-31T11:10:13.249Z,23.10
2019-03-31T11:12:45.294Z,23.20
2019-03-31T11:15:17.648Z,23.50
2019-03-31T11:17:50.472Z,23.00
2019-03-31T11:20:22.919Z,22.90
2019-03-31T11:23:02.487Z,22.80
2019-03-31T11:25:34.583Z,23.00
2019-03-31T11:28:07.078Z,22.60
2019-03-31T11:30:39.014Z,22.40
2019-03-31T11:33:11.344Z,22.50
2019-03-31T11:35:43.440Z,22.00
2019-03-31T11:38:15.356Z,21.40
2019-03-31T11:40:47.766Z,21.00
2019-03-31T11:43:20.121Z,20.90
2019-03-31T11:45:52.275Z,20.20
2019-03-31T11:48:24.264Z,19.70
2019-03-31T11:50:56.345Z,19.30
2019-03-31T11:53:28.271Z,19.20
2019-03-31T11:56:00.382Z,19.10
2019-03-31T11:58:32.576Z,19.00
2019-03-31T12:01:04.547Z,19.00
2019-03-31T12:03:36.555Z,18.80
2019-03-31T12:06:11.246Z,18.70
2019-03-31T12:08:42.363Z,18.50
2019-03-31T12:11:14.848Z,18.20
2019-03-31T12:13:46.930Z,18.10
2019-03-31T12:16:19.006Z,17.90
2019-03-31T12:18:50.919Z,17.60
2019-03-31T12:21:22.920Z,17.30
2019-03-31T12:23:55.066Z,17.30
2019-03-31T12:26:27.060Z,17.60
2019-03-31T12:28:58.978Z,17.80
2019-03-31T12:31:31.549Z,17.40
2019-03-31T12:34:04.198Z,17.20
2019-03-31T12:36:36.608Z,17.10
2019-03-31T12:39:09.923Z,17.00
2019-03-31T12:41:41.931Z,17.00
2019-03-31T12:44:14.299Z,16.90
2019-03-31T12:46:46.569Z,17.00
2019-03-31T12:49:18.618Z,17.00
2019-03-31T12:51:50.647Z,16.80
2019-03-31T12:54:23.090Z,16.60
2019-03-31T12:56:55.114Z,16.60
2019-03-31T12:59:27.708Z,16.50
2019-03-31T13:01:59.932Z,16.30
2019-03-31T13:04:32.291Z,16.20
2019-03-31T13:07:04.649Z,16.10
2019-03-31T13:09:37.011Z,16.20
2019-03-31T13:12:09.110Z,16.50
2019-03-31T13:14:41.385Z,16.60
2019-03-31T13:17:13.303Z,16.50
2019-03-31T13:19:45.880Z,16.50
2019-03-31T13:22:18.160Z,16.40
2019-03-31T13:24:50.538Z,16.40
2019-03-31T13:27:22.714Z,16.20
2019-03-31T13:29:54.671Z,16.30
2019-03-31T13:32:26.690Z,16.10
2019-03-31T13:34:58.824Z,16.30
2019-03-31T13:37:30.719Z,16.60
2019-03-31T13:40:03.031Z,16.60
2019-03-31T13:42:35.384Z,16.60
2019-03-31T13:45:07.920Z,16.20
2019-03-31T13:47:40.342Z,16.00
2019-03-31T13:50:13.299Z,16.00
2019-03-31T13:52:45.311Z,16.10
2019-03-31T13:55:17.510Z,16.20
2019-03-31T13:57:50.437Z,16.20
2019-03-31T14:00:45.906Z,16.10
2019-03-31T14:03:17.928Z,16.20
2019-03-31T14:05:49.937Z,16.20
2019-03-31T14:08:25.885Z,16.20
2019-03-31T14:10:55.812Z,16.00
2019-03-31T14:13:28.138Z,16.10
2019-03-31T14:16:00.062Z,16.10
2019-03-31T14:18:31.983Z,16.10
2019-03-31T14:21:04.050Z,16.00
2019-03-31T14:23:36.368Z,15.80
2019-03-31T14:26:08.511Z,16.10
2019-03-31T14:28:40.479Z,16.10
2019-03-31T14:31:12.629Z,15.90
2019-03-31T14:33:44.756Z,15.90
2019-03-31T14:36:16.924Z,15.70
2019-03-31T14:38:49.032Z,15.70
2019-03-31T14:41:21.030Z,15.70
2019-03-31T14:43:53.230Z,15.80
2019-03-31T14:46:25.312Z,15.90
2019-03-31T14:48:57.314Z,16.10
2019-03-31T14:51:29.299Z,16.30
2019-03-31T14:54:01.301Z,16.10
2019-03-31T14:56:33.320Z,16.00
2019-03-31T14:59:05.472Z,16.00
2019-03-31T15:01:37.578Z,15.90
2019-03-31T15:04:09.584Z,15.80
2019-03-31T15:06:41.952Z,15.80
2019-03-31T15:09:14.402Z,15.90
2019-03-31T15:11:46.676Z,15.70
2019-03-31T15:14:19.047Z,15.90
2019-03-31T15:16:51.382Z,15.90
2019-03-31T15:19:23.462Z,15.90
2019-03-31T15:21:55.539Z,15.80
2019-03-31T15:24:27.537Z,15.90
2019-03-31T15:26:59.451Z,15.90
2019-03-31T15:29:31.493Z,15.80
2019-03-31T15:32:03.583Z,15.70
2019-03-31T15:34:35.776Z,15.60
2019-03-31T15:37:07.998Z,15.70
2019-03-31T15:39:40.095Z,15.80
2019-03-31T15:42:12.232Z,15.90
2019-03-31T15:44:44.425Z,15.70
2019-03-31T15:47:16.515Z,15.60
2019-03-31T15:49:48.509Z,15.50
2019-03-31T15:52:20.466Z,15.60
2019-03-31T15:54:52.588Z,15.50
2019-03-31T15:57:24.872Z,15.30
2019-03-31T15:59:56.973Z,15.40
2019-03-31T16:02:29.576Z,15.50
2019-03-31T16:05:01.507Z,15.50
2019-03-31T16:07:33.555Z,15.50
2019-03-31T16:10:05.725Z,15.40
2019-03-31T16:12:37.011Z,15.30
2019-03-31T16:15:09.290Z,15.40
2019-03-31T16:17:40.512Z,15.30
2019-03-31T16:20:12.453Z,15.10
2019-03-31T16:22:44.525Z,15.10
2019-03-31T16:25:22.139Z,15.00
2019-03-31T16:27:53.835Z,15.00
2019-03-31T16:30:25.092Z,14.90
2019-03-31T16:32:56.391Z,14.90
2019-03-31T16:35:27.515Z,14.90
2019-03-31T16:37:58.736Z,14.90
2019-03-31T16:40:30.089Z,15.00
2019-03-31T16:43:01.282Z,14.90
2019-03-31T16:45:32.480Z,14.90
2019-03-31T16:48:04.067Z,14.90
2019-03-31T16:50:35.335Z,14.80
2019-03-31T16:53:06.892Z,14.80
2019-03-31T16:55:38.206Z,14.70
2019-03-31T16:58:09.716Z,14.70
2019-03-31T17:00:41.098Z,14.50
2019-03-31T17:03:12.469Z,14.40
2019-03-31T17:05:43.763Z,14.30
2019-03-31T17:08:15.601Z,14.20
2019-03-31T17:10:46.963Z,14.10
2019-03-31T17:13:18.578Z,14.00
2019-03-31T17:15:50.141Z,13.90
2019-03-31T17:18:21.426Z,13.90
2019-03-31T17:20:52.748Z,13.90
2019-03-31T17:23:23.994Z,13.80
2019-03-31T17:25:55.733Z,13.60
2019-03-31T17:28:27.266Z,13.50
2019-03-31T17:30:59.551Z,13.50
2019-03-31T17:33:30.916Z,13.40
2019-03-31T17:36:02.267Z,13.40
2019-03-31T17:38:33.402Z,13.40
2019-03-31T17:41:04.684Z,13.30
2019-03-31T17:43:36.135Z,13.20
2019-03-31T17:46:07.427Z,13.20
2019-03-31T17:48:38.673Z,13.10
2019-03-31T17:51:10.042Z,13.00
2019-03-31T17:53:41.139Z,12.90
2019-03-31T17:56:12.426Z,12.90
2019-03-31T17:58:43.669Z,12.70
2019-03-31T18:01:14.865Z,12.70
2019-03-31T18:03:46.053Z,12.70
2019-03-31T18:06:17.233Z,12.60
2019-03-31T18:08:48.430Z,12.50
2019-03-31T18:11:19.692Z,12.50
2019-03-31T18:13:50.828Z,12.50
2019-03-31T18:16:21.931Z,12.40
2019-03-31T18:18:53.603Z,12.30
2019-03-31T18:21:27.196Z,12.30
2019-03-31T18:23:57.839Z,12.20
2019-03-31T18:26:29.207Z,12.10
2019-03-31T18:29:00.428Z,12.00
2019-03-31T18:31:31.644Z,12.00
2019-03-31T18:34:02.795Z,11.90
2019-03-31T18:36:36.967Z,11.90
2019-03-31T18:39:08.668Z,11.90
2019-03-31T18:41:39.787Z,11.90
2019-03-31T18:44:11.286Z,11.80
2019-03-31T18:46:42.482Z,11.80
2019-03-31T18:49:13.974Z,11.90
2019-03-31T18:51:45.268Z,11.90
2019-03-31T18:54:23.438Z,11.90
2019-03-31T18:57:09.982Z,11.80
2019-03-31T18:59:59.342Z,11.80
2019-03-31T19:02:47.185Z,11.70
2019-03-31T19:05:36.094Z,11.70
2019-03-31T19:08:25.498Z,11.60
2019-03-31T19:11:21.649Z,11.70
2019-03-31T19:14:11.782Z,11.60
2019-03-31T19:16:58.925Z,11.60
2019-03-31T19:19:44.567Z,11.60
2019-03-31T19:22:23.843Z,11.50
2019-03-31T19:25:13.853Z,11.50
2019-03-31T19:28:03.344Z,11.40
2019-03-31T19:30:52.623Z,11.30
2019-03-31T19:33:31.869Z,11.20
2019-03-31T19:36:24.978Z,11.20
2019-03-31T19:39:17.956Z,11.10
2019-03-31T19:42:10.939Z,11.00
2019-03-31T19:45:00.388Z,10.90
2019-03-31T19:47:52.384Z,10.70
2019-03-31T19:50:51.828Z,10.80
2019-03-31T19:53:41.901Z,10.70
2019-03-31T19:56:38.109Z,10.60
2019-03-31T19:59:43.542Z,10.70
2019-03-31T20:02:33.593Z,10.60
2019-03-31T20:05:32.738Z,10.50
2019-03-31T20:08:25.458Z,10.30
2019-03-31T20:11:07.445Z,10.30
2019-03-31T20:13:56.249Z,10.20
2019-03-31T20:16:44.739Z,10.20
2019-03-31T20:19:33.855Z,10.20
2019-03-31T20:22:13.568Z,10.10
2019-03-31T20:25:03.138Z,10.20
2019-03-31T20:27:49.623Z,10.20
2019-03-31T20:30:31.873Z,10.20
2019-03-31T20:33:28.078Z,10.20
2019-03-31T20:36:18.536Z,10.00
2019-03-31T20:38:58.414Z,9.90
2019-03-31T20:41:57.728Z,10.00
2019-03-31T20:44:28.811Z,9.90
2019-03-31T20:47:00.078Z,9.80
2019-03-31T20:49:31.512Z,9.80
2019-03-31T20:52:02.774Z,9.80
2019-03-31T20:54:33.967Z,9.70
2019-03-31T20:57:05.189Z,9.60
2019-03-31T20:59:36.344Z,9.60
2019-03-31T21:02:07.837Z,9.50
2019-03-31T21:04:39.212Z,9.40
2019-03-31T21:07:10.327Z,9.30
2019-03-31T21:09:45.169Z,9.20
2019-03-31T21:12:14.678Z,9.10
2019-03-31T21:14:45.854Z,9.10
2019-03-31T21:17:17.092Z,9.00
2019-03-31T21:19:48.285Z,9.00
2019-03-31T21:22:19.461Z,9.00
2019-03-31T21:24:51.054Z,9.00
2019-03-31T21:27:22.157Z,8.90
2019-03-31T21:29:53.323Z,8.80
2019-03-31T21:32:24.458Z,8.80
2019-03-31T21:34:55.584Z,8.80
2019-03-31T21:37:26.859Z,8.80
2019-03-31T21:39:57.980Z,8.80
2019-03-31T21:42:29.227Z,8.80
2019-03-31T21:45:00.298Z,8.80
2019-03-31T21:47:31.814Z,8.70
2019-03-31T21:50:03.010Z,8.70
2019-03-31T21:52:34.098Z,8.60
2019-03-31T21:55:05.489Z,8.50
2019-03-31T21:57:36.733Z,8.50
2019-03-31T22:00:09.947Z,8.40
2019-03-31T22:02:41.303Z,8.30
2019-03-31T22:05:13.131Z,8.30
2019-03-31T22:07:44.362Z,8.30
2019-03-31T22:10:15.680Z,8.30
2019-03-31T22:12:47.067Z,8.30
2019-03-31T22:15:18.335Z,8.30
2019-03-31T22:17:49.508Z,8.30
2019-03-31T22:20:20.760Z,8.30
2019-03-31T22:22:51.979Z,8.20
2019-03-31T22:25:23.485Z,8.40
2019-03-31T22:27:54.726Z,8.50
2019-03-31T22:30:25.884Z,8.60
2019-03-31T22:32:57.086Z,8.50
2019-03-31T22:35:28.778Z,8.50
2019-03-31T22:38:02.415Z,8.50
2019-03-31T22:40:32.853Z,8.40
2019-03-31T22:43:07.601Z,8.40
2019-03-31T22:45:37.121Z,8.50
2019-03-31T22:48:08.649Z,8.50
2019-03-31T22:50:40.158Z,8.50
2019-03-31T22:53:11.269Z,8.40
2019-03-31T22:55:42.376Z,8.40
2019-03-31T22:58:13.469Z,8.40
2019-03-31T23:00:44.878Z,8.60
2019-03-31T23:03:15.956Z,8.60
2019-03-31T23:05:47.163Z,8.60
2019-03-31T23:08:18.422Z,8.50
2019-03-31T23:10:49.592Z,8.50
2019-03-31T23:13:21.107Z,8.50
2019-03-31T23:15:52.228Z,8.50
2019-03-31T23:18:23.471Z,8.40
2019-03-31T23:20:54.737Z,8.30
2019-03-31T23:23:25.958Z,8.30
2019-03-31T23:25:57.045Z,8.30
2019-03-31T23:28:28.878Z,8.30
2019-03-31T23:31:03.425Z,8.20
2019-03-31T23:33:32.874Z,8.00
2019-03-31T23:36:04.023Z,7.90
2019-03-31T23:38:35.194Z,8.00
2019-03-31T23:41:06.683Z,8.00
2019-03-31T23:43:37.857Z,8.00
2019-03-31T23:46:09.047Z,8.00
2019-03-31T23:48:40.630Z,8.00
2019-03-31T23:51:12.182Z,7.90
2019-03-31T23:53:43.260Z,7.90
2019-03-31T23:56:14.335Z,8.00
2019-03-31T23:58:45.790Z,8.00
